createdAt,value
2022-10-06T18:19:20.349Z,3.20
2022-10-06T18:25:35.328Z,4.00
2022-10-06T18:31:49.042Z,3.30
2022-10-06T18:38:22.560Z,3.80
2022-10-06T18:41:31.368Z,3.90
2022-10-06T18:44:55.777Z,5.00
2022-10-06T18:48:20.417Z,4.20
2022-10-06T18:51:30.252Z,12.90
2022-10-06T18:54:37.235Z,6.10
2022-10-06T18:57:45.816Z,3.70
2022-10-06T19:00:54.618Z,4.30
2022-10-06T19:04:04.830Z,4.00
2022-10-06T19:07:11.510Z,4.60
2022-10-06T19:10:18.257Z,4.70
2022-10-06T19:13:25.058Z,4.30
2022-10-06T19:16:32.034Z,4.50
2022-10-06T19:19:38.597Z,4.80
2022-10-06T19:22:45.165Z,5.60
2022-10-06T19:25:59.756Z,6.20
2022-10-06T19:29:08.377Z,6.50
2022-10-06T19:32:17.713Z,6.30
2022-10-06T19:35:24.542Z,5.70
2022-10-06T19:38:31.448Z,4.80
2022-10-06T19:41:57.228Z,6.00
2022-10-06T19:45:04.943Z,7.60
2022-10-06T19:48:11.707Z,7.30
2022-10-06T19:51:19.710Z,9.30
2022-10-06T19:54:27.849Z,8.80
2022-10-06T19:57:35.202Z,8.00
2022-10-06T20:00:42.252Z,7.10
2022-10-06T20:03:48.849Z,7.80
2022-10-06T20:06:55.544Z,7.30
2022-10-06T20:10:03.165Z,7.50
2022-10-06T20:13:09.880Z,8.10
2022-10-06T20:16:18.807Z,9.30
2022-10-06T20:19:26.254Z,9.60
2022-10-06T20:22:32.858Z,10.50
2022-10-06T20:25:39.572Z,9.20
2022-10-06T20:28:47.031Z,9.20
2022-10-06T20:31:56.356Z,9.40
2022-10-06T20:35:03.929Z,10.10
2022-10-06T20:38:10.544Z,10.80
2022-10-06T20:41:19.661Z,11.50
2022-10-06T20:44:26.250Z,11.10
2022-10-06T20:47:33.701Z,12.10
2022-10-06T20:50:40.295Z,12.00
2022-10-06T20:53:47.546Z,12.50
2022-10-06T20:56:56.695Z,13.30
2022-10-06T21:00:03.469Z,14.50
2022-10-06T21:03:10.435Z,14.00
2022-10-06T21:06:18.523Z,14.20
2022-10-06T21:09:28.364Z,15.00
2022-10-06T21:12:35.392Z,14.90
2022-10-06T21:15:47.706Z,15.40
2022-10-06T21:18:55.015Z,16.10
2022-10-06T21:22:01.603Z,14.90
2022-10-06T21:25:09.982Z,17.40
2022-10-06T21:28:18.543Z,16.70
2022-10-06T21:31:27.151Z,15.60
2022-10-06T21:34:37.551Z,15.20
2022-10-06T21:37:44.504Z,15.50
2022-10-06T21:40:51.567Z,15.80
2022-10-06T21:43:59.621Z,16.10
2022-10-06T21:47:07.978Z,15.30
2022-10-06T21:50:14.993Z,15.70
2022-10-06T21:53:22.015Z,16.30
2022-10-06T21:56:30.557Z,16.80
2022-10-06T21:59:37.287Z,16.70
2022-10-06T22:02:44.018Z,16.50
2022-10-06T22:05:50.791Z,17.50
2022-10-06T22:08:58.702Z,15.80
2022-10-06T22:12:05.966Z,19.40
2022-10-06T22:15:13.403Z,17.80
2022-10-06T22:18:20.083Z,18.30
2022-10-06T22:21:28.583Z,17.30
2022-10-06T22:24:35.305Z,17.90
2022-10-06T22:27:42.352Z,17.70
2022-10-06T22:30:49.382Z,19.00
2022-10-06T22:33:57.781Z,19.70
2022-10-06T22:37:04.452Z,18.80
2022-10-06T22:40:13.781Z,19.70
2022-10-06T22:43:20.515Z,20.90
2022-10-06T22:46:28.359Z,19.10
2022-10-06T22:49:35.332Z,17.90
2022-10-06T22:52:42.069Z,19.10
2022-10-06T22:55:49.137Z,19.00
2022-10-06T22:58:59.691Z,16.80
2022-10-06T23:02:07.091Z,17.20
2022-10-06T23:05:13.655Z,15.40
2022-10-06T23:08:20.543Z,17.40
2022-10-06T23:11:27.199Z,16.00
2022-10-06T23:14:33.958Z,16.90
2022-10-06T23:17:41.215Z,16.50
2022-10-06T23:20:48.192Z,16.60
2022-10-06T23:23:56.324Z,16.50
2022-10-06T23:27:04.679Z,18.00
2022-10-06T23:30:13.382Z,17.00
2022-10-06T23:33:20.067Z,17.20
2022-10-06T23:36:26.930Z,17.20
2022-10-06T23:39:33.717Z,16.30
2022-10-06T23:42:40.459Z,17.70
2022-10-06T23:45:47.360Z,18.70
2022-10-06T23:48:54.151Z,16.20
2022-10-06T23:52:01.030Z,16.60
2022-10-06T23:55:08.884Z,17.70
2022-10-06T23:58:15.793Z,16.80
